Time;durP1;ratioP1;P1;durP2;ratioP2;P2;SDS_P1;SDS_P2;PMS_P1;PMS_P2;Temp;Humidity;BMP_temperature;BMP_pressure;BME280_temperature;BME280_humidity;BME280_pressure;Samples;Min_cycle;Max_cycle;Signal;HPM_P1;HPM_P2
2023/12/20 00:00:55;;;;;;;16.25;5.10;;;;;;;4.51;100.00;101319.44;6306021;22;20034;-81
2023/12/20 00:03:20;;;;;;;17.52;5.20;;;;;;;4.52;100.00;101335.16;6304433;22;20004;-80
2023/12/20 00:05:46;;;;;;;18.20;4.95;;;;;;;4.39;100.00;101329.50;6306113;22;20011;-82
2023/12/20 00:08:12;;;;;;;13.93;4.30;;;;;;;4.36;100.00;101337.78;6306154;22;20420;-81
2023/12/20 00:10:37;;;;;;;20.00;4.93;;;;;;;4.31;100.00;101335.59;6306173;22;20011;-80
2023/12/20 00:13:02;;;;;;;13.20;4.32;;;;;;;4.36;100.00;101345.72;6305808;22;20010;-80
2023/12/20 00:15:28;;;;;;;27.75;5.40;;;;;;;4.40;100.00;101339.13;6305980;22;20007;-79
2023/12/20 00:17:53;;;;;;;19.05;4.85;;;;;;;4.37;100.00;101339.44;6306093;22;20082;-80
2023/12/20 00:20:18;;;;;;;16.63;3.90;;;;;;;4.42;100.00;101347.72;6306165;22;20098;-81
2023/12/20 00:22:44;;;;;;;15.88;4.25;;;;;;;4.34;100.00;101332.66;6304418;22;20003;-81
2023/12/20 00:25:09;;;;;;;12.50;5.05;;;;;;;4.48;100.00;101331.19;6304358;22;20336;-80
2023/12/20 00:27:34;;;;;;;14.15;4.32;;;;;;;4.49;100.00;101330.19;6304422;22;20007;-80
2023/12/20 00:30:00;;;;;;;15.40;4.63;;;;;;;4.46;100.00;101346.41;6304536;22;20485;-80
2023/12/20 00:32:25;;;;;;;12.82;4.20;;;;;;;4.32;100.00;101339.88;6305962;22;20010;-81
2023/12/20 00:34:50;;;;;;;13.23;4.32;;;;;;;4.26;100.00;101335.25;6303853;22;20017;-80
2023/12/20 00:37:16;;;;;;;14.23;3.72;;;;;;;4.16;100.00;101326.63;6306007;22;20015;-80
2023/12/20 00:39:42;;;;;;;17.52;4.43;;;;;;;4.13;100.00;101318.19;6304328;22;20026;-80
2023/12/20 00:42:07;;;;;;;15.55;4.55;;;;;;;4.07;100.00;101326.75;6305993;22;20014;-82
2023/12/20 00:44:32;;;;;;;19.52;4.32;;;;;;;4.05;100.00;101324.28;6305956;22;20007;-81
2023/12/20 00:46:58;;;;;;;13.38;4.10;;;;;;;4.04;100.00;101322.59;6305993;22;20086;-80
2023/12/20 00:49:23;;;;;;;16.83;3.67;;;;;;;4.01;100.00;101325.56;6306320;22;20010;-81
2023/12/20 00:51:50;;;;;;;10.30;3.25;;;;;;;3.99;100.00;101330.19;6304243;22;20018;-80
2023/12/20 00:54:16;;;;;;;18.35;4.07;;;;;;;3.91;100.00;101316.94;6304126;22;20008;-80
2023/12/20 00:56:41;;;;;;;13.90;4.43;;;;;;;3.90;100.00;101320.56;6304238;22;20080;-82
2023/12/20 00:59:06;;;;;;;13.15;4.03;;;;;;;3.91;100.00;101320.41;6305809;22;20013;-80
2023/12/20 01:01:33;;;;;;;12.05;3.65;;;;;;;3.84;100.00;101321.19;6304332;22;20027;-80
2023/12/20 01:03:58;;;;;;;15.90;4.15;;;;;;;3.85;100.00;101326.34;6304142;22;20057;-81
2023/12/20 01:06:23;;;;;;;12.10;4.18;;;;;;;3.80;100.00;101320.69;6305837;22;20003;-81
2023/12/20 01:08:49;;;;;;;9.70;3.30;;;;;;;3.79;100.00;101311.09;6304261;22;20090;-81
2023/12/20 01:11:14;;;;;;;13.60;4.38;;;;;;;3.66;100.00;101300.13;6304339;22;20003;-80
2023/12/20 01:13:39;;;;;;;17.73;4.65;;;;;;;3.83;100.00;101324.84;6305916;22;20003;-79
2023/12/20 01:16:05;;;;;;;14.27;4.15;;;;;;;3.81;100.00;101334.75;6305706;22;20014;-80
2023/12/20 01:18:31;;;;;;;13.90;3.97;;;;;;;3.85;100.00;101341.38;6304175;22;20034;-81
2023/12/20 01:20:56;;;;;;;14.88;3.97;;;;;;;3.88;100.00;101333.13;6305806;22;20121;-81
2023/12/20 01:23:21;;;;;;;23.48;4.85;;;;;;;3.87;100.00;101337.59;6305675;22;20026;-81
2023/12/20 01:25:47;;;;;;;16.60;3.92;;;;;;;4.00;100.00;101334.47;6305771;22;20015;-79
2023/12/20 01:28:13;;;;;;;11.50;3.83;;;;;;;4.11;100.00;101341.34;6304079;22;20014;-80
2023/12/20 01:30:38;;;;;;;11.93;4.75;;;;;;;4.07;100.00;101340.00;6305796;22;20015;-80
2023/12/20 01:33:04;;;;;;;17.10;4.50;;;;;;;4.10;100.00;101347.63;6304096;22;20006;-80
2023/12/20 01:35:29;;;;;;;26.83;5.35;;;;;;;4.09;100.00;101345.94;6304099;22;20018;-80
2023/12/20 01:37:56;;;;;;;19.17;4.43;;;;;;;4.13;100.00;101344.66;6304123;22;20003;-80
2023/12/20 01:40:22;;;;;;;13.75;4.30;;;;;;;4.08;100.00;101347.78;6304003;22;20042;-80
2023/12/20 01:42:47;;;;;;;16.13;4.70;;;;;;;3.95;100.00;101334.97;6305722;22;20003;-79
2023/12/20 01:45:13;;;;;;;22.52;4.10;;;;;;;3.94;100.00;101337.78;6303966;22;20035;-80
2023/12/20 01:47:38;;;;;;;16.15;4.25;;;;;;;3.91;100.00;101330.97;6305534;22;20078;-81
2023/12/20 01:50:07;;;;;;;18.55;4.00;;;;;;;3.88;100.00;101331.31;6305679;22;20003;-81
2023/12/20 01:52:34;;;;;;;11.13;3.92;;;;;;;3.87;100.00;101327.00;6304358;22;20447;-80
2023/12/20 01:55:04;;;;;;;13.95;3.85;;;;;;;3.91;100.00;101332.81;6305512;22;20030;-80
2023/12/20 01:57:30;;;;;;;20.25;4.15;;;;;;;3.90;100.00;101331.16;6304015;22;20428;-79
2023/12/20 01:59:55;;;;;;;18.38;3.72;;;;;;;3.87;100.00;101340.22;6305686;22;20000;-80
2023/12/20 02:02:21;;;;;;;15.52;3.90;;;;;;;3.77;100.00;101328.94;6303938;22;20018;-80
2023/12/20 02:04:47;;;;;;;20.08;4.32;;;;;;;3.76;100.00;101335.22;6303992;22;20090;-80
2023/12/20 02:07:13;;;;;;;23.30;3.92;;;;;;;3.66;100.00;101319.44;6305656;22;20029;-80
2023/12/20 02:09:39;;;;;;;14.85;4.20;;;;;;;3.69;100.00;101327.06;6305537;22;20008;-80
2023/12/20 02:12:05;;;;;;;19.60;4.32;;;;;;;3.66;100.00;101339.78;6305604;22;20074;-80
2023/12/20 02:14:30;;;;;;;14.02;4.13;;;;;;;3.64;100.00;101334.66;6305280;22;19999;-81
2023/12/20 02:16:56;;;;;;;9.65;3.65;;;;;;;3.76;100.00;101332.56;6305409;22;20288;-81
2023/12/20 02:19:21;;;;;;;18.65;5.07;;;;;;;3.79;100.00;101334.91;6305346;22;20095;-81
2023/12/20 02:21:47;;;;;;;14.05;4.15;;;;;;;3.79;100.00;101336.72;6303889;22;20332;-81
2023/12/20 02:24:12;;;;;;;18.17;4.10;;;;;;;3.79;100.00;101337.56;6303703;22;20014;-80
2023/12/20 02:26:38;;;;;;;22.52;4.05;;;;;;;3.78;100.00;101327.13;6303923;22;20003;-79
2023/12/20 02:29:03;;;;;;;15.88;4.55;;;;;;;3.76;100.00;101318.50;6303793;22;20007;-80
2023/12/20 02:31:29;;;;;;;15.02;4.18;;;;;;;3.85;100.00;101326.34;6303870;22;20007;-79
2023/12/20 02:33:54;;;;;;;12.60;4.03;;;;;;;3.84;100.00;101323.84;6305545;22;20432;-80
2023/12/20 02:36:19;;;;;;;19.40;5.07;;;;;;;3.81;100.00;101335.56;6303671;22;20030;-81
2023/12/20 02:38:45;;;;;;;16.27;5.43;;;;;;;3.86;100.00;101332.44;6305379;22;20459;-81
2023/12/20 02:41:10;;;;;;;20.30;4.72;;;;;;;3.83;100.00;101328.31;6305356;22;19999;-80
2023/12/20 02:43:35;;;;;;;17.58;5.43;;;;;;;3.86;100.00;101332.44;6305332;22;20007;-80
2023/12/20 02:46:00;;;;;;;15.88;4.15;;;;;;;3.97;100.00;101329.50;6305404;22;20018;-80
2023/12/20 02:48:26;;;;;;;12.65;4.10;;;;;;;3.93;100.00;101320.25;6305288;22;20017;-80
2023/12/20 02:50:51;;;;;;;18.95;4.20;;;;;;;3.88;100.00;101326.00;6305213;22;20086;-80
2023/12/20 02:53:17;;;;;;;14.68;5.22;;;;;;;3.90;100.00;101324.03;6305141;22;20416;-81
2023/12/20 02:55:42;;;;;;;15.82;5.68;;;;;;;3.90;100.00;101333.78;6303508;22;20090;-80
2023/12/20 02:58:07;;;;;;;17.40;4.20;;;;;;;3.97;100.00;101316.28;6305314;22;20409;-81
2023/12/20 03:00:33;;;;;;;20.83;5.75;;;;;;;4.03;100.00;101331.53;6306507;22;20328;-81
2023/12/20 03:02:59;;;;;;;20.83;5.95;;;;;;;3.97;100.00;101318.94;6306430;22;20455;-80
2023/12/20 03:05:24;;;;;;;18.50;4.70;;;;;;;4.04;100.00;101331.34;6304984;22;20064;-80
2023/12/20 03:07:50;;;;;;;20.02;5.20;;;;;;;4.10;100.00;101331.72;6306430;22;20428;-81
2023/12/20 03:10:15;;;;;;;18.02;4.57;;;;;;;4.01;100.00;101310.50;6306364;22;20011;-80
2023/12/20 03:12:40;;;;;;;16.88;4.97;;;;;;;4.00;100.00;101323.91;6304745;22;20007;-80
2023/12/20 03:15:06;;;;;;;24.75;4.85;;;;;;;4.02;100.00;101309.53;6306231;22;20014;-80
2023/12/20 03:17:32;;;;;;;16.67;4.53;;;;;;;4.11;100.00;101314.88;6306452;22;20424;-80
2023/12/20 03:19:57;;;;;;;17.17;4.60;;;;;;;4.14;100.00;101309.25;6306482;22;20010;-80
2023/12/20 03:22:22;;;;;;;17.25;4.20;;;;;;;4.08;100.00;101308.09;6306415;22;20007;-79
2023/12/20 03:24:48;;;;;;;19.92;4.90;;;;;;;4.05;100.00;101316.34;6306538;22;19999;-79
2023/12/20 03:27:13;;;;;;;20.30;4.90;;;;;;;4.03;100.00;101307.69;6306360;22;20064;-80
2023/12/20 03:29:38;;;;;;;20.42;4.65;;;;;;;3.93;100.00;101307.00;6306298;22;19999;-79
2023/12/20 03:32:04;;;;;;;17.52;4.05;;;;;;;3.76;100.00;101286.75;6304929;22;20063;-80
2023/12/20 03:34:29;;;;;;;16.88;4.53;;;;;;;3.87;100.00;101292.63;6306405;22;20078;-79
2023/12/20 03:36:54;;;;;;;18.63;4.80;;;;;;;3.87;100.00;101286.50;6306464;22;20073;-80
2023/12/20 03:39:20;;;;;;;16.08;4.68;;;;;;;3.88;100.00;101306.66;6306292;22;20086;-80
2023/12/20 03:41:45;;;;;;;22.20;5.05;;;;;;;3.88;100.00;101307.50;6304592;22;20427;-81
2023/12/20 03:44:10;;;;;;;16.98;5.53;;;;;;;3.91;100.00;101298.41;6306260;22;20006;-80
2023/12/20 03:46:36;;;;;;;17.40;4.63;;;;;;;3.95;100.00;101299.75;6304687;22;20018;-80
2023/12/20 03:49:01;;;;;;;21.80;5.70;;;;;;;3.93;100.00;101278.75;6304671;22;20011;-80
2023/12/20 03:51:27;;;;;;;23.52;5.72;;;;;;;4.04;100.00;101294.31;6306152;22;20377;-80
2023/12/20 03:53:52;;;;;;;23.95;6.18;;;;;;;4.09;100.00;101301.78;6306027;22;20069;-80
2023/12/20 03:56:18;;;;;;;25.15;5.05;;;;;;;4.17;100.00;101301.00;6306192;22;20003;-81
2023/12/20 03:58:43;;;;;;;16.17;4.30;;;;;;;4.17;100.00;101290.41;6304784;22;20034;-79
2023/12/20 04:01:12;;;;;;;18.48;5.60;;;;;;;4.22;100.00;101302.16;6306286;22;20023;-80
2023/12/20 04:03:38;;;;;;;21.38;4.63;;;;;;;4.22;100.00;101303.97;6306158;22;20371;-80
2023/12/20 04:06:04;;;;;;;24.42;4.78;;;;;;;4.30;100.00;101299.53;6304561;22;20462;-80
2023/12/20 04:08:29;;;;;;;20.13;4.75;;;;;;;4.28;100.00;101293.56;6304505;22;20015;-82
2023/12/20 04:10:54;;;;;;;23.92;5.45;;;;;;;4.26;100.00;101297.38;6305675;22;20007;-82
2023/12/20 04:13:20;;;;;;;15.23;4.97;;;;;;;4.35;100.00;101291.13;6306286;22;20018;-79
2023/12/20 04:15:45;;;;;;;20.33;6.28;;;;;;;4.37;100.00;101299.72;6304456;22;20007;-80
2023/12/20 04:18:10;;;;;;;18.98;5.13;;;;;;;4.44;100.00;101306.03;6304708;22;20046;-80
2023/12/20 04:20:36;;;;;;;13.23;3.72;;;;;;;4.53;100.00;101304.22;6306315;22;20023;-79
2023/12/20 04:23:01;;;;;;;21.90;4.80;;;;;;;4.49;100.00;101309.00;6304529;22;20007;-80
2023/12/20 04:25:26;;;;;;;17.52;4.70;;;;;;;4.55;100.00;101295.09;6306186;22;20043;-80
2023/12/20 04:27:52;;;;;;;12.90;5.80;;;;;;;4.62;100.00;101303.22;6306265;22;20328;-80
2023/12/20 04:30:17;;;;;;;18.02;4.93;;;;;;;4.63;100.00;101302.25;6304468;22;20012;-79
2023/12/20 04:32:42;;;;;;;18.90;7.15;;;;;;;4.64;100.00;101303.91;6304729;22;20033;-79
2023/12/20 04:35:08;;;;;;;18.80;5.35;;;;;;;4.69;100.00;101309.53;6304507;22;20011;-79
2023/12/20 04:37:33;;;;;;;22.02;5.13;;;;;;;4.68;100.00;101292.00;6305965;22;20006;-78
2023/12/20 04:39:59;;;;;;;12.65;4.22;;;;;;;4.73;100.00;101299.44;6305929;22;20014;-79
2023/12/20 04:42:24;;;;;;;19.92;5.18;;;;;;;4.70;100.00;101305.06;6306041;22;20420;-79
2023/12/20 04:44:50;;;;;;;18.40;4.63;;;;;;;4.77;100.00;101316.66;6306123;22;20011;-78
2023/12/20 04:47:15;;;;;;;18.48;5.18;;;;;;;4.76;100.00;101302.59;6306247;22;20003;-78
2023/12/20 04:49:40;;;;;;;16.70;4.82;;;;;;;4.80;100.00;101313.69;6306267;22;20057;-78
2023/12/20 04:52:05;;;;;;;18.30;4.70;;;;;;;4.77;100.00;101292.81;6304385;22;20365;-78
2023/12/20 04:54:31;;;;;;;20.42;5.32;;;;;;;4.76;100.00;101305.22;6305884;22;20031;-78
2023/12/20 04:56:56;;;;;;;13.23;4.20;;;;;;;4.76;100.00;101307.06;6306004;22;20619;-78
2023/12/20 04:59:22;;;;;;;21.20;5.32;;;;;;;4.89;100.00;101323.28;6306113;22;20254;-78
2023/12/20 05:01:47;;;;;;;17.02;4.25;;;;;;;4.91;100.00;101311.50;6304538;22;20021;-77
2023/12/20 05:04:12;;;;;;;19.13;5.65;;;;;;;4.88;100.00;101298.59;6304324;22;20098;-77
2023/12/20 05:06:38;;;;;;;26.48;6.07;;;;;;;4.98;100.00;101306.41;6304560;22;20367;-79
2023/12/20 05:09:03;;;;;;;11.90;4.45;;;;;;;4.91;100.00;101318.63;6305957;22;20328;-78
2023/12/20 05:11:29;;;;;;;11.40;4.15;;;;;;;4.89;100.00;101315.31;6306089;22;20003;-79
2023/12/20 05:13:55;;;;;;;18.13;4.60;;;;;;;4.94;100.00;101297.13;6304195;22;20007;-77
2023/12/20 05:16:21;;;;;;;12.88;3.80;;;;;;;4.92;100.00;101307.06;6305808;22;20436;-78
2023/12/20 05:18:48;;;;;;;19.55;4.70;;;;;;;4.89;100.00;101289.66;6304529;22;20000;-77
2023/12/20 05:21:14;;;;;;;28.60;5.90;;;;;;;4.94;100.00;101292.66;6305666;22;20007;-77
2023/12/20 05:23:39;;;;;;;20.77;4.78;;;;;;;4.93;100.00;101316.69;6305985;22;20006;-78
2023/12/20 05:26:04;;;;;;;13.80;3.90;;;;;;;4.89;100.00;101302.06;6305953;22;20015;-77
2023/12/20 05:28:29;;;;;;;20.20;5.38;;;;;;;4.92;100.00;101296.47;6305787;22;20011;-79
2023/12/20 05:30:55;;;;;;;15.30;4.80;;;;;;;4.95;100.00;101318.16;6304306;22;20038;-78
2023/12/20 05:33:20;;;;;;;15.02;5.30;;;;;;;4.88;100.00;101309.19;6304346;22;20003;-78
2023/12/20 05:35:45;;;;;;;13.25;3.80;;;;;;;4.97;100.00;101315.34;6305762;22;20349;-78
2023/12/20 05:38:11;;;;;;;17.90;4.63;;;;;;;4.95;100.00;101314.69;6305909;22;20092;-79
2023/12/20 05:40:37;;;;;;;25.05;4.90;;;;;;;4.87;100.00;101296.13;6306091;22;20431;-79
2023/12/20 05:43:02;;;;;;;14.93;4.15;;;;;;;4.93;100.00;101306.09;6305706;22;20027;-79
2023/12/20 05:45:27;;;;;;;20.67;5.85;;;;;;;4.82;100.00;101298.44;6305758;22;20053;-77
2023/12/20 05:47:53;;;;;;;12.75;4.00;;;;;;;4.78;100.00;101303.25;6304094;22;20008;-78
2023/12/20 05:50:18;;;;;;;16.48;4.30;;;;;;;4.83;100.00;101302.75;6305660;22;19999;-78
2023/12/20 05:52:44;;;;;;;15.27;4.13;;;;;;;4.76;100.00;101309.72;6304253;22;20049;-78
2023/12/20 05:55:09;;;;;;;17.95;4.13;;;;;;;4.64;100.00;101317.16;6305477;22;20372;-79
2023/12/20 05:57:35;;;;;;;23.33;6.45;;;;;;;4.51;100.00;101312.31;6305708;22;20027;-77
2023/12/20 06:00:00;;;;;;;19.67;4.80;;;;;;;4.48;100.00;101328.53;6305604;22;20056;-78
2023/12/20 06:02:25;;;;;;;27.70;4.53;;;;;;;4.37;100.00;101323.56;6305791;22;20027;-76
2023/12/20 06:04:51;;;;;;;17.10;4.03;;;;;;;4.37;100.00;101335.97;6305637;22;20010;-77
2023/12/20 06:07:16;;;;;;;18.40;4.80;;;;;;;4.27;100.00;101333.44;6304146;22;20003;-78
2023/12/20 06:09:42;;;;;;;16.30;4.50;;;;;;;4.30;100.00;101335.75;6303962;22;20073;-78
2023/12/20 06:12:08;;;;;;;17.75;4.55;;;;;;;4.44;100.00;101343.09;6303944;22;20336;-78
2023/12/20 06:14:34;;;;;;;18.88;4.93;;;;;;;4.39;100.00;101329.50;6303915;22;20007;-78
2023/12/20 06:17:00;;;;;;;19.42;4.25;;;;;;;4.39;100.00;101334.81;6304026;22;20121;-77
2023/12/20 06:19:26;;;;;;;20.30;4.80;;;;;;;4.46;100.00;101335.81;6303911;22;20031;-78
2023/12/20 06:21:51;;;;;;;14.20;4.50;;;;;;;4.51;100.00;101330.84;6305722;22;20418;-78
2023/12/20 06:24:17;;;;;;;19.67;4.55;;;;;;;4.52;100.00;101331.69;6305540;22;20078;-78
2023/12/20 06:26:42;;;;;;;11.80;4.00;;;;;;;4.43;100.00;101322.06;6304177;22;20008;-79
2023/12/20 06:29:08;;;;;;;19.60;4.07;;;;;;;4.33;100.00;101324.84;6305620;22;20003;-78
2023/12/20 06:31:33;;;;;;;19.35;4.65;;;;;;;4.24;100.00;101317.88;6305472;22;20006;-80
2023/12/20 06:33:59;;;;;;;18.88;4.78;;;;;;;4.22;100.00;101317.22;6303325;22;20450;-77
2023/12/20 06:36:26;;;;;;;17.60;4.43;;;;;;;4.25;100.00;101333.59;6305809;22;20011;-78
2023/12/20 06:38:51;;;;;;;15.85;5.50;;;;;;;4.27;100.00;101320.19;6305526;22;19999;-78
2023/12/20 06:41:17;;;;;;;17.70;4.82;;;;;;;4.28;100.00;101327.97;6305656;22;20447;-78
2023/12/20 06:43:42;;;;;;;14.32;3.70;;;;;;;4.32;100.00;101324.00;6304168;22;20335;-77
2023/12/20 06:46:08;;;;;;;17.73;4.82;;;;;;;4.40;100.00;101327.69;6305713;22;20481;-78
2023/12/20 06:48:34;;;;;;;20.55;4.93;;;;;;;4.32;100.00;101317.88;6305595;22;20329;-78
2023/12/20 06:51:01;;;;;;;17.00;5.43;;;;;;;4.37;100.00;101336.78;6303862;22;20443;-78
2023/12/20 06:53:27;;;;;;;23.88;4.85;;;;;;;4.34;100.00;101339.75;6305510;22;20003;-77
2023/12/20 06:55:52;;;;;;;20.73;5.88;;;;;;;4.33;100.00;101335.44;6303754;22;20486;-79
2023/12/20 06:58:18;;;;;;;21.63;6.57;;;;;;;4.31;100.00;101326.81;6303964;22;20424;-78
2023/12/20 07:00:43;;;;;;;22.02;6.95;;;;;;;4.26;100.00;101308.78;6303701;22;20009;-79
2023/12/20 07:03:09;;;;;;;20.75;6.28;;;;;;;4.42;100.00;101318.59;6305384;22;20034;-76
2023/12/20 07:05:34;;;;;;;22.70;6.18;;;;;;;4.39;100.00;101332.16;6305489;22;20018;-77
2023/12/20 07:08:00;;;;;;;24.00;6.28;;;;;;;4.35;100.00;101317.59;6305085;22;20444;-77
2023/12/20 07:10:25;;;;;;;16.83;6.07;;;;;;;4.40;100.00;101317.09;6305154;22;20322;-76
2023/12/20 07:12:51;;;;;;;12.23;4.57;;;;;;;4.35;100.00;101322.88;6305328;22;20080;-75
2023/12/20 07:15:16;;;;;;;14.35;4.75;;;;;;;4.34;100.00;101315.94;6303604;22;20007;-75
2023/12/20 07:17:43;;;;;;;22.52;6.00;;;;;;;4.37;100.00;101315.59;6305117;22;20023;-74
2023/12/20 07:20:10;;;;;;;19.58;5.97;;;;;;;4.42;100.00;101323.06;6304976;22;20037;-77
2023/12/20 07:22:36;;;;;;;14.65;5.72;;;;;;;4.42;100.00;101318.59;6303312;22;20060;-76
2023/12/20 07:25:01;;;;;;;19.45;4.88;;;;;;;4.46;100.00;101314.63;6303386;22;20019;-78
2023/12/20 07:27:27;;;;;;;15.80;5.63;;;;;;;4.49;100.00;101324.91;6304752;22;20369;-78
2023/12/20 07:29:52;;;;;;;16.83;5.25;;;;;;;4.45;100.00;101328.03;6304828;22;20011;-76
2023/12/20 07:32:18;;;;;;;19.42;5.68;;;;;;;4.49;100.00;101327.53;6304807;22;20007;-79
2023/12/20 07:34:43;;;;;;;18.30;5.53;;;;;;;4.44;100.00;101321.09;6303415;22;20056;-79
2023/12/20 07:37:11;;;;;;;13.10;4.78;;;;;;;4.48;100.00;101323.25;6303327;22;20425;-76
2023/12/20 07:39:37;;;;;;;21.25;6.50;;;;;;;4.42;100.00;101318.59;6303205;22;20003;-77
2023/12/20 07:42:02;;;;;;;20.02;6.00;;;;;;;4.47;100.00;101315.47;6304859;22;20050;-78
2023/12/20 07:44:28;;;;;;;17.70;5.15;;;;;;;4.47;100.00;101318.09;6305088;22;20007;-77
2023/12/20 07:46:53;;;;;;;20.30;6.35;;;;;;;4.52;100.00;101319.28;6306301;22;20121;-77
2023/12/20 07:49:19;;;;;;;24.17;5.10;;;;;;;4.48;100.00;101312.66;6304540;22;20006;-76
2023/12/20 07:51:44;;;;;;;18.42;5.25;;;;;;;4.57;100.00;101322.25;6306300;22;20007;-79
2023/12/20 07:54:10;;;;;;;20.50;5.88;;;;;;;4.56;100.00;101307.34;6306215;22;20066;-75
2023/12/20 07:56:35;;;;;;;17.90;5.95;;;;;;;4.62;100.00;101308.50;6304636;22;20026;-76
2023/12/20 07:59:01;;;;;;;21.50;5.80;;;;;;;4.55;100.00;101318.94;6306126;22;19999;-77
2023/12/20 08:01:26;;;;;;;12.38;4.88;;;;;;;4.66;100.00;101333.72;6306243;22;20007;-77
2023/12/20 08:03:52;;;;;;;12.65;5.70;;;;;;;4.74;100.00;101332.88;6306273;22;20007;-76
2023/12/20 08:06:17;;;;;;;11.02;4.57;;;;;;;4.72;100.00;101334.88;6306268;22;20006;-77
2023/12/20 08:08:43;;;;;;;22.33;6.03;;;;;;;4.65;100.00;101335.53;6306138;22;20003;-75
2023/12/20 08:11:08;;;;;;;15.48;5.53;;;;;;;4.78;100.00;101342.97;6304560;22;20045;-78
2023/12/20 08:13:34;;;;;;;23.65;5.78;;;;;;;4.74;100.00;101336.34;6304462;22;20007;-79
2023/12/20 08:16:08;;;;;;;12.90;3.83;;;;;;;4.84;100.00;101323.78;6304647;22;20013;-83
2023/12/20 08:18:33;;;;;;;18.80;5.70;;;;;;;4.85;100.00;101330.72;6304524;22;20011;-80
2023/12/20 08:21:01;;;;;;;21.02;5.15;;;;;;;4.79;100.00;101320.78;6304465;22;20086;-79
2023/12/20 08:23:27;;;;;;;19.17;6.20;;;;;;;4.90;100.00;101348.78;6304719;22;20432;-80
2023/12/20 08:25:53;;;;;;;16.50;5.38;;;;;;;4.87;100.00;101333.22;6306126;22;20030;-80
2023/12/20 08:28:19;;;;;;;16.42;4.70;;;;;;;4.91;100.00;101342.47;6330317;22;20008;-82
2023/12/20 08:30:44;;;;;;;17.27;5.18;;;;;;;4.92;100.00;101357.41;6306072;22;20038;-78
2023/12/20 08:33:12;;;;;;;20.13;6.05;;;;;;;4.84;100.00;101333.53;6304904;22;20011;-78
2023/12/20 08:35:41;;;;;;;21.63;5.65;;;;;;;4.92;100.00;101334.41;6304663;22;20018;-79
2023/12/20 08:38:06;;;;;;;20.38;5.55;;;;;;;5.00;100.00;101333.56;6304551;22;20432;-78
2023/12/20 08:40:32;;;;;;;22.08;5.95;;;;;;;5.08;100.00;101346.81;6306164;22;20076;-77
2023/12/20 08:42:58;;;;;;;15.07;5.65;;;;;;;5.09;100.00;101351.13;6304485;22;19999;-78
2023/12/20 08:45:23;;;;;;;10.13;4.72;;;;;;;5.12;100.00;101360.56;6304510;22;20022;-78
2023/12/20 08:47:49;;;;;;;17.52;5.35;;;;;;;5.10;100.00;101336.03;6306023;22;20004;-78
2023/12/20 08:50:15;;;;;;;20.75;5.40;;;;;;;5.09;100.00;101329.91;6306010;22;20044;-78
2023/12/20 08:52:40;;;;;;;16.88;5.35;;;;;;;5.21;100.00;101323.28;6306144;22;20305;-76
2023/12/20 08:55:06;;;;;;;21.08;5.05;;;;;;;5.27;100.00;101330.56;6305844;22;20034;-76
2023/12/20 08:57:32;;;;;;;17.67;4.97;;;;;;;5.22;100.00;101330.25;6303836;22;20074;-77
2023/12/20 08:59:57;;;;;;;17.33;5.63;;;;;;;5.18;100.00;101315.66;6304356;22;20007;-77
2023/12/20 09:02:22;;;;;;;18.63;4.38;;;;;;;5.29;100.00;101328.59;6305938;22;20015;-79
2023/12/20 09:04:48;;;;;;;20.85;5.30;;;;;;;5.24;100.00;101312.34;6304298;22;20344;-79
2023/12/20 09:07:28;;;;;;;17.73;4.63;;;;;;;5.25;100.00;101318.50;6305956;22;20306;-79
2023/12/20 09:09:53;;;;;;;14.90;5.18;;;;;;;5.12;100.00;101295.13;6304317;22;20098;-78
2023/12/20 09:12:19;;;;;;;17.33;4.60;;;;;;;5.36;100.00;101326.09;6305841;22;20084;-79
2023/12/20 09:14:49;;;;;;;16.05;5.05;;;;;;;5.11;100.00;101295.28;6305894;22;19999;-78
2023/12/20 09:17:16;;;;;;;17.17;5.75;;;;;;;5.35;100.00;101323.59;6304338;22;20011;-78
2023/12/20 09:19:43;;;;;;;15.77;5.10;;;;;;;5.32;100.00;101318.63;6304158;22;20057;-77
2023/12/20 09:22:12;;;;;;;14.85;5.03;;;;;;;5.33;100.00;101331.72;6305886;22;20061;-78
2023/12/20 09:24:38;;;;;;;22.00;6.75;;;;;;;5.28;100.00;101329.59;6304383;22;20042;-77
2023/12/20 09:27:04;;;;;;;17.95;5.32;;;;;;;5.37;100.00;101311.81;6305801;22;20078;-76
2023/12/20 09:29:30;;;;;;;20.08;5.43;;;;;;;5.33;100.00;101329.06;6304084;22;20003;-80
2023/12/20 09:31:56;;;;;;;17.75;5.45;;;;;;;5.32;100.00;101323.94;6305678;22;20074;-81
2023/12/20 09:34:22;;;;;;;18.50;5.85;;;;;;;5.35;100.00;101316.47;6304122;22;20010;-83
2023/12/20 09:36:47;;;;;;;20.42;5.45;;;;;;;5.39;100.00;101331.03;6304117;22;20007;-81
2023/12/20 09:39:14;;;;;;;13.50;4.88;;;;;;;5.47;100.00;101332.84;6304177;22;20007;-82
2023/12/20 09:41:43;;;;;;;17.60;5.05;;;;;;;5.40;100.00;101310.66;6304072;22;20011;-79
2023/12/20 09:44:14;;;;;;;14.18;4.53;;;;;;;5.50;100.00;101328.06;6304251;22;19999;-80
2023/12/20 09:46:43;;;;;;;13.93;4.25;;;;;;;5.57;100.00;101325.56;6304389;22;20003;-80
2023/12/20 09:49:10;;;;;;;16.88;4.53;;;;;;;5.54;100.00;101328.56;6304144;22;20386;-81
2023/12/20 09:51:36;;;;;;;17.80;4.72;;;;;;;5.63;100.00;101339.97;6305747;22;20038;-79
2023/12/20 09:54:03;;;;;;;18.33;4.25;;;;;;;5.62;100.00;101325.03;6305596;22;20010;-81
2023/12/20 09:56:29;;;;;;;17.20;5.10;;;;;;;5.59;100.00;101331.53;6305521;22;20309;-82
2023/12/20 09:58:55;;;;;;;15.85;4.43;;;;;;;5.56;100.00;101318.59;6305949;22;20340;-80
2023/12/20 10:01:21;;;;;;;18.65;4.63;;;;;;;5.58;100.00;101328.03;6305599;22;19995;-80
2023/12/20 10:03:46;;;;;;;14.65;4.18;;;;;;;5.72;100.00;101313.22;6305553;22;20519;-77
2023/12/20 10:06:12;;;;;;;22.80;5.50;;;;;;;5.68;100.00;101327.00;6305567;22;20030;-83
2023/12/20 10:08:38;;;;;;;17.08;6.13;;;;;;;5.76;100.00;101333.13;6304060;22;20011;-82
2023/12/20 10:11:05;;;;;;;15.05;4.53;;;;;;;5.80;100.00;101313.22;6304081;22;20064;-79
2023/12/20 10:13:30;;;;;;;13.68;5.20;;;;;;;5.82;100.00;101313.06;6306260;22;20298;-78
2023/12/20 10:15:56;;;;;;;15.70;4.68;;;;;;;5.82;100.00;101313.06;6305515;22;20010;-78
2023/12/20 10:18:21;;;;;;;17.85;4.63;;;;;;;5.89;100.00;101330.81;6305547;22;20034;-80
2023/12/20 10:20:47;;;;;;;16.35;5.00;;;;;;;5.90;100.00;101311.22;6305470;22;20091;-80
2023/12/20 10:23:13;;;;;;;22.02;4.72;;;;;;;5.96;100.00;101319.50;6305550;22;20340;-79
2023/12/20 10:25:39;;;;;;;15.70;4.65;;;;;;;6.01;100.00;101315.31;6303959;22;20007;-79
2023/12/20 10:28:19;;;;;;;13.85;4.43;;;;;;;6.11;100.00;101325.75;6305732;22;20007;-77
2023/12/20 10:30:45;;;;;;;15.30;3.75;;;;;;;6.22;100.00;101336.78;6305436;22;20499;-77
2023/12/20 10:33:10;;;;;;;12.52;3.92;;;;;;;6.26;100.00;101333.78;6305419;22;20038;-78
2023/12/20 10:35:38;;;;;;;15.23;4.80;;;;;;;6.12;100.00;101317.59;6305350;22;20007;-79
2023/12/20 10:38:05;;;;;;;12.40;3.95;;;;;;;6.15;100.00;101319.91;6303718;22;20003;-79
2023/12/20 10:40:34;;;;;;;15.90;3.67;;;;;;;6.20;100.00;101316.72;6305386;22;20422;-79
2023/12/20 10:43:01;;;;;;;15.27;4.30;;;;;;;6.12;100.00;101311.47;6305319;22;20011;-79
2023/12/20 10:45:26;;;;;;;12.38;4.25;;;;;;;6.14;100.00;101312.13;6305307;22;20035;-78
2023/12/20 10:47:52;;;;;;;17.25;4.10;;;;;;;6.15;100.00;101297.84;6303786;22;20010;-82
2023/12/20 10:50:24;;;;;;;13.52;3.75;;;;;;;6.15;100.00;101292.53;6305403;22;20392;-80
2023/12/20 10:52:55;;;;;;;9.67;3.57;;;;;;;6.27;100.00;101303.56;6329694;22;20007;-82
2023/12/20 10:55:22;;;;;;;13.10;3.42;;;;;;;6.28;100.00;101297.25;6305254;22;20257;-81
2023/12/20 10:57:51;;;;;;;14.80;5.03;;;;;;;6.20;100.00;101295.50;6305208;22;20007;-80
2023/12/20 11:00:18;;;;;;;12.45;4.07;;;;;;;6.14;100.00;101262.50;6303491;22;20015;-79
2023/12/20 11:02:44;;;;;;;16.08;4.15;;;;;;;6.24;100.00;101274.72;6303674;22;20007;-78
2023/12/20 11:05:18;;;;;;;10.35;4.18;;;;;;;6.31;100.00;101281.81;6305218;22;20018;-79
2023/12/20 11:14:49;;;;;;;13.68;4.43;;;;;;;6.28;100.00;101276.03;6271266;22;20019;-79
2023/12/20 11:17:24;;;;;;;15.88;4.05;;;;;;;6.07;100.00;101237.66;6303454;22;20336;-81